Time;durP1;ratioP1;P1;durP2;ratioP2;P2;SDS_P1;SDS_P2;PMS_P1;PMS_P2;Temp;Humidity;BMP_temperature;BMP_pressure;BME280_temperature;BME280_humidity;BME280_pressure;Samples;Min_cycle;Max_cycle;Signal;HPM_P1;HPM_P2
2022/03/15 00:00:47;;;;;;;125.50;89.00;;;;;;;-0.22;41.44;99367.44;105533;1279;25681;-76
2022/03/15 00:03:15;;;;;;;112.00;88.00;;;;;;;-0.27;41.64;99372.29;105532;1281;25386;-77
2022/03/15 00:05:43;;;;;;;67.40;60.40;;;;;;;-0.32;42.17;99376.65;105491;1281;25737;-79
2022/03/15 00:08:11;;;;;;;66.30;59.60;;;;;;;-0.36;42.96;99376.83;105461;1279;25376;-76
2022/03/15 00:10:39;;;;;;;83.80;71.80;;;;;;;-0.35;42.69;99377.70;105766;1279;22717;-76
2022/03/15 00:13:07;;;;;;;67.10;60.00;;;;;;;-0.34;41.58;99375.98;105593;1280;22736;-76
2022/03/15 00:15:36;;;;;;;63.00;56.70;;;;;;;-0.37;41.40;99372.80;105574;1281;22638;-78
2022/03/15 00:18:04;;;;;;;63.20;55.50;;;;;;;-0.38;41.23;99370.05;105959;1279;24083;-77
2022/03/15 00:20:32;;;;;;;63.10;56.80;;;;;;;-0.31;41.42;99370.83;105666;1279;24783;-80
2022/03/15 00:23:00;;;;;;;65.20;57.70;;;;;;;-0.30;41.29;99368.35;106165;1279;25486;-78
2022/03/15 00:25:29;;;;;;;61.90;55.50;;;;;;;-0.32;41.24;99370.21;105574;1281;23306;-80
2022/03/15 00:27:57;;;;;;;59.00;52.60;;;;;;;-0.36;41.69;99365.98;106024;1279;22566;-80
2022/03/15 00:30:25;;;;;;;59.20;51.60;;;;;;;-0.40;41.64;99370.02;106061;1280;25326;-80
2022/03/15 00:32:55;;;;;;;59.40;51.10;;;;;;;-0.45;41.64;99371.30;105973;1279;22619;-79
2022/03/15 00:35:25;;;;;;;64.80;57.80;;;;;;;-0.50;41.91;99370.81;105852;1279;25718;-79
2022/03/15 00:37:54;;;;;;;65.30;58.30;;;;;;;-0.53;42.29;99370.21;105810;1281;25375;-80
2022/03/15 00:40:24;;;;;;;64.20;55.40;;;;;;;-0.55;42.15;99372.55;105740;1281;25010;-79
2022/03/15 00:42:52;;;;;;;66.10;59.10;;;;;;;-0.59;42.42;99370.16;105846;1279;24137;-78
2022/03/15 00:45:28;;;;;;;63.40;56.70;;;;;;;-0.60;42.40;99360.34;105751;1281;22730;-78
2022/03/15 00:47:58;;;;;;;61.20;54.90;;;;;;;-0.61;42.36;99360.41;106022;1279;22855;-77
2022/03/15 00:50:51;;;;;;;102.80;74.70;;;;;;;-0.64;42.46;99355.41;105684;1281;25975;-78
2022/03/15 00:53:19;;;;;;;75.60;66.50;;;;;;;-0.67;42.27;99352.37;105783;1281;22571;-79
2022/03/15 00:55:50;;;;;;;93.30;66.60;;;;;;;-0.71;42.62;99345.17;105992;1279;22551;-79
2022/03/15 00:58:18;;;;;;;80.50;66.00;;;;;;;-0.75;42.89;99349.44;105665;1279;23062;-78
2022/03/15 01:00:48;;;;;;;98.50;74.00;;;;;;;-0.78;42.52;99346.45;105665;1280;22560;-77
2022/03/15 01:03:16;;;;;;;105.50;70.80;;;;;;;-0.80;42.93;99347.95;105839;1279;25379;-78
2022/03/15 01:05:45;;;;;;;93.90;68.20;;;;;;;-0.81;43.19;99347.08;105708;1280;22560;-78
2022/03/15 01:08:14;;;;;;;108.00;69.70;;;;;;;-0.80;43.19;99341.34;105716;1280;22602;-78
2022/03/15 01:10:43;;;;;;;118.90;72.50;;;;;;;-0.81;43.51;99338.27;105561;1281;24306;-75
2022/03/15 01:13:11;;;;;;;134.70;72.80;;;;;;;-0.83;43.60;99337.60;105513;1279;24367;-77
2022/03/15 01:15:42;;;;;;;118.40;72.40;;;;;;;-0.85;43.96;99334.36;105510;1279;25383;-78
2022/03/15 01:18:12;;;;;;;82.70;63.90;;;;;;;-0.82;43.87;99332.36;105549;1279;23200;-77
2022/03/15 01:20:42;;;;;;;91.60;68.60;;;;;;;-0.79;43.69;99333.66;105575;1279;22546;-76
2022/03/15 01:23:11;;;;;;;73.50;61.60;;;;;;;-0.79;43.58;99333.66;105424;1279;24095;-77
2022/03/15 01:25:40;;;;;;;62.70;56.00;;;;;;;-0.80;43.70;99325.17;105261;1281;407396;-77
2022/03/15 01:28:10;;;;;;;63.60;56.90;;;;;;;-0.78;43.60;99322.63;105328;1281;25574;-76
2022/03/15 01:30:38;;;;;;;65.30;58.40;;;;;;;-0.75;43.82;99319.15;105807;1280;25342;-78
2022/03/15 01:33:07;;;;;;;72.40;62.30;;;;;;;-0.76;43.99;99316.91;105615;1281;22563;-77
2022/03/15 01:35:36;;;;;;;60.70;54.40;;;;;;;-0.74;44.17;99324.09;105588;1279;22646;-76
2022/03/15 01:38:04;;;;;;;53.80;48.00;;;;;;;-0.77;44.46;99325.86;105598;1279;22702;-77
2022/03/15 01:40:34;;;;;;;65.00;58.40;;;;;;;-0.79;44.31;99319.65;105470;1280;22728;-77
2022/03/15 01:43:02;;;;;;;58.90;52.90;;;;;;;-0.80;44.18;99318.54;105793;1279;22554;-77
2022/03/15 01:45:35;;;;;;;53.90;47.80;;;;;;;-0.88;44.11;99318.23;105651;1279;22661;-77
2022/03/15 01:48:05;;;;;;;;;;;;;;;-0.90;44.28;99323.06;105716;1281;24080;-77
2022/03/15 01:50:37;;;;;;;54.80;49.00;;;;;;;-0.95;45.82;99328.30;105878;1279;22557;-76
2022/03/15 01:53:06;;;;;;;57.30;51.20;;;;;;;-0.94;46.27;99326.39;105427;1282;25314;-75
2022/03/15 01:55:36;;;;;;;54.00;48.30;;;;;;;-0.91;46.75;99328.17;105385;1281;22563;-76
2022/03/15 01:58:04;;;;;;;53.40;47.80;;;;;;;-0.91;46.22;99334.13;105497;1281;25368;-77
2022/03/15 02:00:33;;;;;;;52.90;47.30;;;;;;;-0.89;45.94;99336.73;105610;1281;22560;-76
2022/03/15 02:03:05;;;;;;;56.30;50.30;;;;;;;-0.86;45.45;99335.34;105704;1281;25051;-77
2022/03/15 02:05:33;;;;;;;56.40;50.00;;;;;;;-0.84;45.13;99331.33;105663;1280;22703;-77
2022/03/15 02:08:10;;;;;;;53.30;47.70;;;;;;;-0.89;45.00;99337.79;105304;1281;22680;-76
2022/03/15 02:10:38;;;;;;;51.70;46.40;;;;;;;-0.96;46.86;99343.90;105710;1279;22689;-77
2022/03/15 02:13:07;;;;;;;53.50;47.80;;;;;;;-0.98;45.87;99345.52;105560;1281;22549;-77
2022/03/15 02:15:35;;;;;;;56.60;49.50;;;;;;;-1.02;45.29;99349.35;105755;1279;22697;-78
2022/03/15 02:18:04;;;;;;;56.70;50.40;;;;;;;-1.08;45.57;99343.86;105864;1279;24464;-78
2022/03/15 02:20:32;;;;;;;55.70;49.60;;;;;;;-1.13;45.48;99343.38;105904;1279;22560;-78
2022/03/15 02:23:00;;;;;;;56.90;50.90;;;;;;;-1.18;45.90;99347.11;105853;1279;22882;-77
2022/03/15 02:25:28;;;;;;;58.60;51.90;;;;;;;-1.19;46.12;99343.05;105627;1279;24227;-77
2022/03/15 02:27:56;;;;;;;53.80;48.10;;;;;;;-1.23;46.11;99341.40;105387;1281;22692;-77
2022/03/15 02:31:04;;;;;;;64.00;57.30;;;;;;;-1.25;46.00;99340.92;105426;1279;22565;-78
2022/03/15 02:34:47;;;;;;;61.50;54.90;;;;;;;-1.27;46.02;99340.13;105877;1279;22658;-78
2022/03/15 02:37:30;;;;;;;58.90;51.20;;;;;;;-1.26;46.39;99347.96;105832;1279;22736;-76
2022/03/15 02:39:58;;;;;;;67.50;56.00;;;;;;;-1.21;46.70;99348.71;105625;1279;22536;-75
2022/03/15 02:42:26;;;;;;;62.70;56.10;;;;;;;-1.14;46.77;99349.15;105468;1280;24243;-80
2022/03/15 02:44:54;;;;;;;58.10;51.80;;;;;;;-1.09;46.82;99352.20;105633;1279;22552;-76
2022/03/15 02:47:22;;;;;;;54.10;48.20;;;;;;;-1.04;47.68;99351.81;105473;1281;26682;-77
2022/03/15 02:49:50;;;;;;;55.00;49.40;;;;;;;-0.99;47.40;99347.39;105421;1281;22833;-76
2022/03/15 02:52:18;;;;;;;54.60;49.00;;;;;;;-0.93;47.07;99347.61;105401;1280;24264;-76
2022/03/15 02:54:46;;;;;;;57.40;51.60;;;;;;;-0.90;46.83;99347.64;105615;1279;25417;-76
2022/03/15 02:57:14;;;;;;;57.90;51.90;;;;;;;-0.91;46.61;99351.14;105851;1279;22528;-76
2022/03/15 02:59:43;;;;;;;52.80;47.20;;;;;;;-0.95;47.25;99353.95;105670;1279;22562;-76
2022/03/15 03:02:10;;;;;;;52.30;46.60;;;;;;;-0.97;47.57;99363.23;105618;1279;25507;-75
2022/03/15 03:04:39;;;;;;;63.90;56.40;;;;;;;-0.96;47.35;99360.16;105602;1279;24309;-75
2022/03/15 03:07:07;;;;;;;57.00;51.10;;;;;;;-0.96;47.09;99358.00;105630;1279;25334;-76
2022/03/15 03:09:35;;;;;;;52.60;47.00;;;;;;;-0.99;47.06;99357.64;105677;1279;25670;-75
2022/03/15 03:12:03;;;;;;;53.50;48.00;;;;;;;-1.01;47.15;99355.79;105519;1279;22745;-77
2022/03/15 03:14:30;;;;;;;47.70;42.70;;;;;;;-0.99;47.25;99352.23;105448;1281;24371;-75
2022/03/15 03:16:58;;;;;;;50.40;45.10;;;;;;;-0.93;47.34;99350.22;105654;1279;22707;-75
2022/03/15 03:19:27;;;;;;;65.60;51.80;;;;;;;-0.86;47.29;99347.63;105434;1281;25602;-76
2022/03/15 03:21:56;;;;;;;56.70;50.70;;;;;;;-0.83;47.00;99349.54;105369;1281;22731;-75
2022/03/15 03:24:24;;;;;;;63.10;56.60;;;;;;;-0.85;47.07;99345.11;105402;1281;22804;-77
2022/03/15 03:26:52;;;;;;;56.70;49.90;;;;;;;-0.92;47.46;99349.09;105409;1281;22676;-76
2022/03/15 03:29:21;;;;;;;61.90;54.00;;;;;;;-0.97;47.95;99346.34;105408;1280;25415;-77
2022/03/15 03:31:50;;;;;;;54.60;48.80;;;;;;;-1.00;47.57;99341.56;105506;1281;25501;-75
2022/03/15 03:34:19;;;;;;;56.00;50.10;;;;;;;-1.00;47.40;99341.08;105419;1280;24242;-76
2022/03/15 03:36:47;;;;;;;55.40;49.80;;;;;;;-1.03;47.44;99345.36;105653;1279;22646;-75
2022/03/15 03:39:26;;;;;;;54.90;48.80;;;;;;;-1.07;47.68;99347.45;105627;1279;22714;-75
2022/03/15 03:41:55;;;;;;;59.50;53.60;;;;;;;-1.09;47.68;99346.95;105649;1279;25306;-78
2022/03/15 03:44:23;;;;;;;59.80;50.70;;;;;;;-1.15;47.91;99348.40;105522;1281;22635;-78
2022/03/15 03:46:51;;;;;;;56.90;50.90;;;;;;;-1.22;47.94;99345.67;105783;1281;22559;-77
2022/03/15 03:49:19;;;;;;;60.80;54.40;;;;;;;-1.27;48.14;99343.65;105503;1280;25237;-76
2022/03/15 03:51:47;;;;;;;66.60;59.20;;;;;;;-1.30;48.20;99347.22;105746;1280;25373;-75
2022/03/15 03:54:15;;;;;;;62.60;55.90;;;;;;;-1.35;48.59;99346.88;105743;1279;22563;-75
2022/03/15 03:57:23;;;;;;;67.10;53.90;;;;;;;-1.34;48.30;99350.06;105668;1280;22714;-76
2022/03/15 04:01:12;;;;;;;57.30;51.60;;;;;;;-1.34;48.07;99349.86;105528;1279;22561;-77
2022/03/15 04:05:01;;;;;;;63.60;55.70;;;;;;;-1.34;47.87;99349.88;105566;1279;25374;-76
2022/03/15 04:08:24;;;;;;;99.50;80.70;;;;;;;-1.42;48.41;99355.64;105208;1283;22626;-76
2022/03/15 04:10:53;;;;;;;62.50;55.80;;;;;;;-1.43;48.33;99360.21;105155;1283;22513;-77
2022/03/15 04:13:21;;;;;;;62.00;51.90;;;;;;;-1.43;48.29;99367.09;105213;1283;25410;-76
2022/03/15 04:15:49;;;;;;;56.20;50.40;;;;;;;-1.48;48.45;99365.11;105086;1283;25425;-75
2022/03/15 04:18:17;;;;;;;55.20;49.60;;;;;;;-1.53;48.47;99362.13;105206;1283;24403;-77
2022/03/15 04:20:45;;;;;;;55.10;49.60;;;;;;;-1.54;48.61;99356.48;105081;1282;24645;-75
2022/03/15 04:23:14;;;;;;;54.50;49.00;;;;;;;-1.55;48.60;99357.09;105009;1283;22559;-76
2022/03/15 04:25:42;;;;;;;56.90;51.40;;;;;;;-1.53;48.55;99353.54;105343;1279;22562;-76
2022/03/15 04:28:12;;;;;;;55.30;49.70;;;;;;;-1.50;48.79;99346.79;105627;1279;22592;-78
2022/03/15 04:30:40;;;;;;;59.20;53.00;;;;;;;-1.46;48.77;99341.35;105634;1279;23350;-77
2022/03/15 04:33:08;;;;;;;56.10;50.30;;;;;;;-1.44;48.64;99349.98;105630;1279;22652;-76
2022/03/15 04:35:36;;;;;;;61.80;55.50;;;;;;;-1.49;49.26;99350.94;105643;1280;24304;-76
2022/03/15 04:38:04;;;;;;;60.80;53.40;;;;;;;-1.52;49.38;99346.22;105615;1280;25383;-75
2022/03/15 04:40:32;;;;;;;56.50;50.60;;;;;;;-1.54;49.26;99344.33;105396;1282;22636;-76
2022/03/15 04:43:01;;;;;;;58.00;52.20;;;;;;;-1.52;49.12;99343.75;105634;1279;25264;-74
2022/03/15 04:45:29;;;;;;;56.70;50.60;;;;;;;-1.49;49.17;99343.45;105136;1281;25445;-77
2022/03/15 04:47:57;;;;;;;65.00;57.90;;;;;;;-1.52;49.16;99347.24;105487;1281;22564;-79
2022/03/15 04:50:25;;;;;;;68.20;60.70;;;;;;;-1.58;49.41;99344.05;105882;1280;24238;-75
2022/03/15 04:52:52;;;;;;;55.70;49.90;;;;;;;-1.63;49.93;99346.78;105660;1279;22578;-79
2022/03/15 04:55:20;;;;;;;55.80;50.00;;;;;;;-1.69;50.21;99348.34;105614;1279;22720;-77
2022/03/15 04:57:50;;;;;;;55.40;49.90;;;;;;;-1.68;50.33;99344.56;105549;1279;22570;-77
2022/03/15 05:00:18;;;;;;;61.60;55.00;;;;;;;-1.64;50.20;99345.36;105464;1281;25374;-76
2022/03/15 05:02:46;;;;;;;77.10;61.90;;;;;;;-1.71;50.32;99347.71;105460;1280;26671;-76
2022/03/15 05:05:14;;;;;;;69.90;62.60;;;;;;;-1.73;50.05;99348.04;105760;1279;25473;-76
2022/03/15 05:07:44;;;;;;;61.30;55.00;;;;;;;-1.74;49.98;99347.75;105618;1279;22557;-75
2022/03/15 05:13:00;;;;;;;72.70;61.30;;;;;;;-1.79;51.81;99346.09;105644;1279;24395;-76
2022/03/15 05:15:29;;;;;;;69.50;62.80;;;;;;;-1.75;50.71;99347.61;105738;1279;23365;-76
2022/03/15 05:17:57;;;;;;;80.00;71.60;;;;;;;-1.71;50.57;99344.08;105641;1280;22548;-78
2022/03/15 05:20:25;;;;;;;78.30;70.50;;;;;;;-1.69;50.78;99345.61;105741;1279;22822;-76
2022/03/15 05:22:52;;;;;;;71.60;64.20;;;;;;;-1.69;50.59;99345.86;105427;1281;25462;-77
2022/03/15 05:25:20;;;;;;;68.50;57.20;;;;;;;-1.69;50.64;99351.52;105410;1281;24376;-77
2022/03/15 05:27:48;;;;;;;67.10;55.10;;;;;;;-1.64;50.60;99345.19;105641;1280;22555;-77
2022/03/15 05:30:17;;;;;;;61.20;54.90;;;;;;;-1.62;50.72;99346.61;105661;1279;22551;-77
2022/03/15 05:32:45;;;;;;;113.00;80.20;;;;;;;-1.60;50.72;99353.25;105888;1279;24443;-78
2022/03/15 05:35:13;;;;;;;101.70;75.70;;;;;;;-1.55;50.85;99348.02;105910;1280;22588;-77
2022/03/15 05:37:41;;;;;;;80.90;68.10;;;;;;;-1.51;51.06;99350.48;105408;1281;25374;-79
2022/03/15 05:40:10;;;;;;;101.50;77.40;;;;;;;-1.45;51.35;99345.27;105743;1279;22572;-77
2022/03/15 05:42:38;;;;;;;93.80;71.30;;;;;;;-1.36;50.96;99349.75;105663;1281;25399;-76
2022/03/15 05:45:06;;;;;;;78.10;69.40;;;;;;;-1.31;51.39;99353.67;105661;1279;25434;-76
2022/03/15 05:47:34;;;;;;;83.70;74.70;;;;;;;-1.25;51.41;99358.27;105508;1279;25417;-77
2022/03/15 05:50:05;;;;;;;70.80;63.80;;;;;;;-1.16;51.23;99357.70;105610;1279;25087;-77
2022/03/15 05:52:33;;;;;;;69.10;62.00;;;;;;;-1.06;51.08;99360.99;105717;1280;25374;-76
2022/03/15 05:55:01;;;;;;;74.60;64.30;;;;;;;-0.98;50.97;99357.02;105593;1279;22664;-76
2022/03/15 05:57:29;;;;;;;64.20;58.00;;;;;;;-0.85;51.10;99358.30;105475;1281;22568;-76
2022/03/15 05:59:57;;;;;;;59.30;53.00;;;;;;;-0.72;51.03;99359.00;105661;1279;26545;-76
2022/03/15 06:02:25;;;;;;;69.80;56.30;;;;;;;-0.55;51.08;99364.77;105330;1280;25335;-77
2022/03/15 06:04:53;;;;;;;67.00;59.40;;;;;;;-0.40;51.14;99363.34;105494;1281;23050;-77
2022/03/15 06:07:21;;;;;;;64.50;57.60;;;;;;;-0.27;51.20;99361.85;105521;1279;22559;-77
2022/03/15 06:09:52;;;;;;;51.20;46.00;;;;;;;-0.09;51.00;99359.51;105599;1281;24241;-76
2022/03/15 06:12:24;;;;;;;48.20;43.10;;;;;;;0.11;51.12;99354.36;105459;1281;22865;-78
2022/03/15 06:14:52;;;;;;;46.00;41.20;;;;;;;0.37;50.91;99353.92;105616;1279;22563;-77
2022/03/15 06:17:20;;;;;;;52.20;44.60;;;;;;;0.63;51.01;99355.02;105506;1281;22698;-77
2022/03/15 06:19:48;;;;;;;52.80;47.10;;;;;;;0.93;50.71;99353.52;105604;1279;22557;-76
2022/03/15 06:22:16;;;;;;;53.70;47.40;;;;;;;1.23;50.51;99355.98;105240;1279;24337;-79
2022/03/15 06:24:44;;;;;;;64.70;57.80;;;;;;;1.51;50.14;99357.25;105788;1279;22770;-76
2022/03/15 06:27:12;;;;;;;72.10;55.00;;;;;;;1.72;49.94;99351.71;105888;1279;24297;-77
2022/03/15 06:29:39;;;;;;;44.00;39.40;;;;;;;1.89;49.79;99351.45;105660;1280;22699;-77
2022/03/15 06:32:07;;;;;;;58.50;46.40;;;;;;;2.08;49.92;99352.98;105414;1280;22625;-77
2022/03/15 06:34:49;;;;;;;56.40;48.50;;;;;;;2.36;49.65;99353.77;105657;1279;22559;-76
2022/03/15 06:37:18;;;;;;;49.30;44.00;;;;;;;2.58;48.89;99354.27;105648;1279;22551;-77
2022/03/15 06:39:46;;;;;;;48.10;42.70;;;;;;;2.80;48.38;99357.01;105506;1281;22566;-76
2022/03/15 06:42:14;;;;;;;47.60;42.40;;;;;;;2.99;48.36;99356.25;105502;1281;22705;-77
2022/03/15 06:44:42;;;;;;;49.90;42.50;;;;;;;3.17;48.09;99358.59;105493;1281;22647;-77
2022/03/15 06:47:11;;;;;;;45.20;39.00;;;;;;;3.34;47.78;99359.55;105642;1279;22906;-77
2022/03/15 06:49:39;;;;;;;47.30;39.90;;;;;;;3.50;47.91;99357.84;105679;1279;22750;-77
2022/03/15 06:52:09;;;;;;;44.20;39.60;;;;;;;3.66;48.44;99360.75;105821;1279;22702;-78
2022/03/15 06:54:37;;;;;;;43.80;39.00;;;;;;;3.82;48.20;99359.08;105611;1279;22582;-75
2022/03/15 06:57:05;;;;;;;40.10;35.50;;;;;;;3.99;47.88;99358.80;105699;1279;22691;-74
2022/03/15 06:59:33;;;;;;;40.50;36.30;;;;;;;4.13;47.84;99356.98;105537;1281;22675;-79
2022/03/15 07:02:04;;;;;;;46.60;35.70;;;;;;;4.27;47.14;99359.02;105568;1281;22544;-78
2022/03/15 07:04:32;;;;;;;40.20;35.80;;;;;;;4.41;46.81;99354.40;105851;1279;22648;-77
2022/03/15 07:07:00;;;;;;;38.30;33.20;;;;;;;4.55;47.10;99358.38;105467;1281;23947;-80
2022/03/15 07:09:28;;;;;;;39.90;35.70;;;;;;;4.70;47.25;99363.21;105502;1281;22653;-78
2022/03/15 07:11:56;;;;;;;44.50;33.30;;;;;;;4.83;46.50;99365.39;105415;1281;22576;-79
2022/03/15 07:14:24;;;;;;;42.60;35.40;;;;;;;4.95;46.64;99361.90;105929;1279;25474;-79
2022/03/15 07:16:52;;;;;;;40.50;35.60;;;;;;;5.08;46.51;99358.60;105773;1281;22600;-78
2022/03/15 07:19:20;;;;;;;40.50;35.20;;;;;;;5.20;46.34;99355.34;105643;1279;24103;-78
2022/03/15 07:21:48;;;;;;;40.90;31.00;;;;;;;5.33;45.95;99355.65;105287;1280;25385;-78
2022/03/15 07:24:16;;;;;;;53.70;35.40;;;;;;;5.44;46.23;99358.98;105806;1280;22540;-80
2022/03/15 07:26:44;;;;;;;38.90;34.00;;;;;;;5.56;46.09;99357.08;105888;1280;23942;-76
2022/03/15 07:29:12;;;;;;;48.50;38.10;;;;;;;5.67;45.80;99357.42;105494;1281;24244;-77
2022/03/15 07:31:40;;;;;;;46.10;38.30;;;;;;;5.79;45.66;99356.23;105893;1281;24387;-76
2022/03/15 07:34:08;;;;;;;47.20;35.90;;;;;;;5.89;45.60;99355.38;105363;1282;22552;-78
2022/03/15 07:36:36;;;;;;;45.90;36.90;;;;;;;5.99;45.20;99353.95;105722;1280;25381;-77
2022/03/15 07:39:04;;;;;;;41.10;35.70;;;;;;;6.08;45.39;99357.70;106041;1281;22739;-79
2022/03/15 07:41:37;;;;;;;46.30;38.40;;;;;;;6.18;44.78;99359.95;106070;1280;25398;-77
2022/03/15 07:44:10;;;;;;;115.10;53.80;;;;;;;6.27;44.40;99356.89;105690;1281;23532;-79
2022/03/15 07:46:40;;;;;;;46.20;39.10;;;;;;;6.38;44.51;99356.41;105778;1280;22808;-78
2022/03/15 07:49:09;;;;;;;50.40;37.70;;;;;;;6.47;44.22;99350.39;106106;1280;23298;-79
2022/03/15 07:51:37;;;;;;;50.60;39.20;;;;;;;6.55;43.51;99351.90;106002;1280;24211;-81
2022/03/15 07:54:04;;;;;;;40.30;34.30;;;;;;;6.65;44.10;99354.14;106099;1280;24337;-79
2022/03/15 07:56:32;;;;;;;36.70;32.90;;;;;;;6.76;43.99;99351.04;105792;1282;22599;-79
2022/03/15 07:59:00;;;;;;;40.20;34.20;;;;;;;6.87;44.22;99347.80;105730;1282;22561;-79
2022/03/15 08:01:28;;;;;;;43.00;36.80;;;;;;;6.99;44.09;99346.43;105562;1281;26018;-78
2022/03/15 08:03:59;;;;;;;39.00;35.00;;;;;;;7.10;43.62;99345.15;105923;1281;22714;-78
2022/03/15 08:06:27;;;;;;;39.80;35.50;;;;;;;7.19;43.49;99341.28;105988;1281;24465;-79
2022/03/15 08:08:57;;;;;;;43.40;38.20;;;;;;;7.28;43.55;99341.77;106103;1280;22560;-79
2022/03/15 08:11:25;;;;;;;40.60;36.20;;;;;;;7.40;43.41;99339.27;106056;1280;23362;-80
2022/03/15 08:13:54;;;;;;;41.30;37.20;;;;;;;7.51;43.46;99334.21;105847;1281;24053;-79
2022/03/15 08:16:23;;;;;;;46.90;39.50;;;;;;;7.63;43.43;99337.98;105950;1281;24139;-79
2022/03/15 08:18:53;;;;;;;43.70;38.70;;;;;;;7.73;43.21;99336.66;106039;1280;22623;-78
2022/03/15 08:21:22;;;;;;;33.70;30.20;;;;;;;7.84;42.92;99336.92;105664;1281;25436;-78
2022/03/15 08:23:50;;;;;;;37.60;33.70;;;;;;;7.93;42.89;99336.58;105609;1281;24451;-78
2022/03/15 08:26:19;;;;;;;36.80;31.50;;;;;;;8.01;42.65;99336.00;105513;1281;22561;-77
2022/03/15 08:28:48;;;;;;;37.30;33.30;;;;;;;8.08;42.21;99334.86;105617;1281;25385;-77
2022/03/15 08:31:16;;;;;;;43.00;36.00;;;;;;;8.16;42.56;99328.90;105708;1281;25260;-77
2022/03/15 08:33:45;;;;;;;37.10;33.20;;;;;;;8.27;42.15;99332.06;105625;1282;22587;-78
2022/03/15 08:36:13;;;;;;;36.20;32.70;;;;;;;8.35;41.89;99332.98;106404;1281;22571;-78
2022/03/15 08:38:41;;;;;;;39.40;34.40;;;;;;;8.42;42.22;99327.94;106359;1280;22699;-78
2022/03/15 08:41:11;;;;;;;35.00;31.10;;;;;;;8.52;40.56;99323.17;105705;1284;22732;-78
2022/03/15 08:43:39;;;;;;;30.50;27.00;;;;;;;8.62;40.89;99319.52;105919;1281;22782;-78
2022/03/15 08:46:07;;;;;;;36.20;32.50;;;;;;;8.69;40.30;99315.32;105803;1281;25683;-78
2022/03/15 08:48:35;;;;;;;33.20;29.20;;;;;;;8.77;40.24;99315.02;105744;1281;24095;-78
2022/03/15 08:51:03;;;;;;;35.30;28.20;;;;;;;8.85;40.39;99312.70;106250;1281;22874;-78
2022/03/15 08:53:34;;;;;;;36.20;28.80;;;;;;;8.92;40.44;99306.85;106042;1280;23942;-77
2022/03/15 08:56:03;;;;;;;29.90;26.60;;;;;;;9.01;40.47;99299.89;106068;1281;22575;-79
2022/03/15 08:58:31;;;;;;;26.50;22.20;;;;;;;9.11;40.15;99298.21;105954;1283;25388;-77
2022/03/15 09:00:59;;;;;;;27.10;24.40;;;;;;;9.16;39.65;99296.98;105517;1281;23327;-78
2022/03/15 09:03:39;;;;;;;28.50;21.60;;;;;;;9.23;39.45;99291.82;105686;1281;22569;-79
2022/03/15 09:06:07;;;;;;;20.60;18.60;;;;;;;9.32;39.60;99285.39;106103;1281;22551;-80
2022/03/15 09:08:34;;;;;;;25.50;22.10;;;;;;;9.44;39.85;99279.63;106046;1282;25326;-78
2022/03/15 09:11:03;;;;;;;26.10;23.70;;;;;;;9.58;39.30;99277.63;106022;1281;22634;-79
2022/03/15 09:13:33;;;;;;;29.70;26.50;;;;;;;9.68;39.10;99276.90;105950;1281;22574;-79
2022/03/15 09:16:01;;;;;;;28.10;24.40;;;;;;;9.76;38.85;99273.49;106021;1281;25442;-79
2022/03/15 09:18:29;;;;;;;27.70;24.70;;;;;;;9.82;38.63;99272.24;105985;1281;24462;-78
2022/03/15 09:20:56;;;;;;;25.30;22.30;;;;;;;9.90;39.16;99265.30;106104;1281;22583;-78
2022/03/15 09:23:24;;;;;;;24.20;21.80;;;;;;;9.99;38.71;99266.42;105883;1281;24317;-77
2022/03/15 09:25:52;;;;;;;23.50;21.10;;;;;;;10.09;38.51;99267.13;105720;1279;22589;-77
2022/03/15 09:28:27;;;;;;;22.30;19.90;;;;;;;10.19;38.39;99259.46;106202;1281;24303;-78
2022/03/15 09:30:55;;;;;;;23.10;20.70;;;;;;;10.31;38.70;99255.50;105989;1281;22641;-77
2022/03/15 09:33:23;;;;;;;24.00;20.10;;;;;;;10.41;38.46;99255.28;106086;1281;22629;-78
2022/03/15 09:35:52;;;;;;;23.90;20.60;;;;;;;10.53;37.92;99258.11;105764;1281;24252;-78
2022/03/15 09:38:21;;;;;;;23.50;20.80;;;;;;;10.60;37.72;99253.73;105379;1282;24416;-79
2022/03/15 09:40:51;;;;;;;23.40;20.20;;;;;;;10.69;37.74;99254.77;105959;1281;22560;-78
2022/03/15 09:43:24;;;;;;;22.00;19.70;;;;;;;10.80;38.15;99246.21;105726;1281;22556;-77
2022/03/15 09:45:53;;;;;;;21.70;19.40;;;;;;;10.94;37.89;99247.75;105633;1281;22579;-77
2022/03/15 09:48:41;;;;;;;21.70;19.40;;;;;;;11.00;37.64;99242.95;105674;1281;22704;-76
2022/03/15 09:51:14;;;;;;;20.80;18.20;;;;;;;11.05;37.43;99240.36;105751;1281;22726;-77
2022/03/15 09:53:42;;;;;;;20.10;18.00;;;;;;;11.11;37.04;99236.55;105805;1281;22563;-78
2022/03/15 09:56:14;;;;;;;19.00;17.10;;;;;;;11.14;36.71;99232.34;106084;1280;22597;-79
2022/03/15 09:58:43;;;;;;;18.00;15.90;;;;;;;11.21;37.18;99229.42;106048;1281;22627;-78
2022/03/15 10:01:18;;;;;;;19.60;17.40;;;;;;;11.28;36.83;99224.17;107144;1281;22579;-78
2022/03/15 10:03:46;;;;;;;19.00;17.10;;;;;;;11.33;36.72;99225.27;107522;1280;22552;-77
2022/03/15 10:06:15;;;;;;;19.30;17.30;;;;;;;11.42;36.71;99218.88;107977;1281;22695;-78
2022/03/15 10:08:43;;;;;;;19.60;17.80;;;;;;;11.49;36.93;99217.95;108124;1280;22607;-77
2022/03/15 10:11:12;;;;;;;20.10;17.80;;;;;;;11.56;36.64;99216.16;107463;1280;22589;-78
2022/03/15 10:13:41;;;;;;;21.20;19.20;;;;;;;11.63;36.12;99210.75;106730;1281;24276;-79
2022/03/15 10:16:12;;;;;;;31.40;19.30;;;;;;;11.70;36.13;99209.64;106296;1280;22639;-78
2022/03/15 10:18:55;;;;;;;19.70;17.60;;;;;;;11.75;36.42;99205.48;106252;1281;22579;-78
2022/03/15 10:21:25;;;;;;;19.20;17.20;;;;;;;11.84;36.44;99198.66;105979;1281;23043;-78
2022/03/15 10:23:58;;;;;;;20.20;18.20;;;;;;;11.92;36.10;99195.96;106503;1280;24240;-79
2022/03/15 10:26:27;;;;;;;20.60;18.30;;;;;;;12.01;35.84;99194.38;106550;1280;22709;-80
2022/03/15 10:28:56;;;;;;;20.40;18.30;;;;;;;12.05;35.84;99192.95;106344;1281;22528;-80
2022/03/15 10:31:24;;;;;;;20.20;18.10;;;;;;;12.06;35.65;99188.02;106693;1279;22755;-80
2022/03/15 10:34:00;;;;;;;20.00;17.80;;;;;;;12.11;35.84;99180.88;107070;1278;22581;-78
2022/03/15 10:36:41;;;;;;;18.10;16.20;;;;;;;12.15;34.93;99185.39;105915;1281;22582;-78
2022/03/15 10:39:14;;;;;;;26.40;23.10;;;;;;;12.14;35.27;99177.89;106960;1280;24407;-77
2022/03/15 10:41:51;;;;;;;20.20;18.30;;;;;;;12.15;35.63;99175.27;105856;1280;23019;-78
2022/03/15 10:44:33;;;;;;;21.70;19.60;;;;;;;12.21;34.99;99175.04;107158;1280;22913;-78
2022/03/15 10:47:08;;;;;;;24.50;21.80;;;;;;;12.31;35.18;99170.55;106923;1280;22690;-78
2022/03/15 10:49:55;;;;;;;24.00;21.30;;;;;;;12.40;35.49;99169.04;106517;1280;24389;-79
2022/03/15 10:52:40;;;;;;;24.30;21.90;;;;;;;12.50;35.79;99166.33;106483;1281;22619;-80
2022/03/15 10:55:19;;;;;;;26.40;20.70;;;;;;;12.62;35.62;99165.23;106807;1280;22797;-79
2022/03/15 10:57:53;;;;;;;27.70;24.90;;;;;;;12.72;35.54;99157.95;106567;1279;22560;-78
2022/03/15 11:00:35;;;;;;;27.40;24.80;;;;;;;12.82;35.21;99153.02;106625;1279;22700;-80
2022/03/15 11:03:23;;;;;;;24.80;22.20;;;;;;;12.93;35.79;99147.90;106975;1279;24496;-78
2022/03/15 11:05:57;;;;;;;28.20;25.40;;;;;;;13.09;35.31;99146.52;106418;1281;22817;-77
2022/03/15 11:08:25;;;;;;;26.50;23.80;;;;;;;13.20;35.54;99146.30;106850;1279;23111;-78
2022/03/15 11:10:55;;;;;;;26.80;24.10;;;;;;;13.25;35.24;99139.14;106673;1280;22666;-79
2022/03/15 11:13:28;;;;;;;27.60;24.80;;;;;;;13.34;35.52;99132.73;108358;1279;25373;-78
2022/03/15 11:15:58;;;;;;;34.20;24.10;;;;;;;13.40;34.53;99129.67;106739;1279;22578;-78
2022/03/15 11:18:30;;;;;;;31.60;28.60;;;;;;;13.37;35.07;99123.70;106949;1279;25490;-80
2022/03/15 11:21:02;;;;;;;30.80;27.60;;;;;;;13.35;35.10;99119.02;106766;1279;26769;-78
2022/03/15 11:23:33;;;;;;;30.50;27.20;;;;;;;13.29;34.59;99112.58;106931;1280;22665;-78
2022/03/15 11:26:09;;;;;;;30.70;27.60;;;;;;;13.32;34.76;99112.70;106742;1281;22582;-79
2022/03/15 11:28:37;;;;;;;32.50;29.30;;;;;;;13.35;35.40;99103.27;106632;1281;25494;-78
2022/03/15 11:31:06;;;;;;;28.60;25.90;;;;;;;13.45;35.44;99095.95;106626;1281;23963;-79